Terminal Aerodrome Forecast
Issued by NWS North Platte, NE

Home | Current Version | Previous Version | Text Only | Print | Product List | Glossary On
Versions: 1 2 3 4 5 6 7 8 9 10 11 12 13 14 15 16 17 18 19 20
624
FTUS43 KLBF 101201 AAA
TAFVTN
TAF AMD
KVTN 101201Z 1012/1112 09007KT P6SM SCT035 OVC070
      TEMPO 1012/1013 4SM -SN
     FM101400 12008KT P6SM OVC015
     FM102000 14010KT P6SM OVC025
     FM110000 17005KT P6SM BKN040=

USA.gov is the U.S. government's official web portal to all federal, state and local government web resources and services.